North Cedar, Texas
Current Conditions -  °F | °C
As of 5:53 AM on Monday 24 Nov 2014 (Local Time) from KLFK Reporting Station
Clear Clear  
Wind Chill: 47°   Ceiling: Unl
Heat Index: 49°   Visibility: 10mi
Dew Point: 40°   Wind: 6mph
Humidity: 71%   Direction: 320°NW
Pressure: 29.92"   Gusts: NA
Location:  31.2615°N, 94.9718°W
Report Text: KLFK 241153Z AUTO 32005KT 10SM CLR 09/04 A2992 RMK AO2 SLP129 7//// T00940044 10161 20094 53025 $
Loading
Personal Weather Stations






























Interactive Weather Map New forecast layout! Learn more

10-Day Weather Forecast

Advertisements
Track Severe Weather on mobile